createdAt,value
2023-03-15T00:01:34.833Z,63.63
2023-03-15T00:04:01.425Z,63.52
2023-03-15T00:06:27.938Z,63.58
2023-03-15T00:08:54.409Z,63.38
2023-03-15T00:11:20.818Z,63.50
2023-03-15T00:13:47.541Z,63.42
2023-03-15T00:16:17.537Z,63.38
2023-03-15T00:18:47.028Z,63.57
2023-03-15T00:21:14.024Z,63.72
2023-03-15T00:23:40.571Z,63.63
2023-03-15T00:26:07.057Z,63.56
2023-03-15T00:28:33.504Z,64.21
2023-03-15T00:31:26.315Z,63.29
2023-03-15T00:33:55.923Z,64.43
2023-03-15T00:36:23.644Z,64.75
2023-03-15T00:38:52.183Z,65.33
2023-03-15T00:41:20.246Z,65.71
2023-03-15T00:43:47.741Z,65.96
2023-03-15T00:46:16.158Z,66.29
2023-03-15T00:48:42.912Z,66.90
2023-03-15T00:51:11.012Z,67.11
2023-03-15T00:53:39.196Z,67.51
2023-03-15T00:56:15.612Z,68.04
2023-03-15T00:58:42.724Z,68.75
2023-03-15T01:01:15.560Z,68.90
2023-03-15T01:03:42.180Z,69.24
2023-03-15T01:06:14.624Z,69.71
2023-03-15T01:08:41.394Z,70.21
2023-03-15T01:11:13.695Z,70.07
2023-03-15T01:13:40.525Z,70.51
2023-03-15T01:16:08.976Z,70.74
2023-03-15T01:21:07.224Z,71.56
2023-03-15T01:23:33.759Z,71.73
2023-03-15T01:26:01.449Z,71.64
2023-03-15T01:28:28.470Z,71.67
2023-03-15T01:30:55.150Z,71.85
2023-03-15T01:33:21.725Z,71.90
2023-03-15T01:35:48.735Z,71.73
2023-03-15T01:38:15.316Z,71.81
2023-03-15T01:40:46.349Z,71.34
2023-03-15T01:43:18.181Z,71.81
2023-03-15T01:46:02.865Z,71.84
2023-03-15T01:48:44.848Z,71.75
2023-03-15T01:51:21.745Z,71.94
2023-03-15T01:53:57.681Z,71.77
2023-03-15T01:56:24.566Z,72.19
2023-03-15T01:58:53.846Z,72.06
2023-03-15T02:01:21.461Z,72.29
2023-03-15T02:03:53.497Z,71.86
2023-03-15T02:06:21.451Z,71.58
2023-03-15T02:08:54.855Z,71.32
2023-03-15T02:11:24.240Z,71.77
2023-03-15T02:13:52.700Z,71.96
2023-03-15T02:16:20.754Z,71.73
2023-03-15T02:18:47.844Z,71.79
2023-03-15T02:21:38.368Z,70.81
2023-03-15T02:24:22.934Z,70.90
2023-03-15T02:26:54.434Z,71.53
2023-03-15T02:29:24.060Z,71.44
2023-03-15T02:31:51.425Z,71.43
2023-03-15T02:34:18.510Z,71.44
2023-03-15T02:36:45.120Z,71.67
2023-03-15T02:39:17.747Z,71.57
2023-03-15T02:41:48.866Z,71.70
2023-03-15T02:44:21.451Z,71.74
2023-03-15T02:46:51.210Z,71.67
2023-03-15T02:49:21.816Z,71.61
2023-03-15T02:51:48.173Z,72.01
2023-03-15T02:54:14.661Z,71.93
2023-03-15T02:56:41.103Z,71.88
2023-03-15T02:59:07.658Z,72.08
2023-03-15T03:01:37.264Z,71.97
2023-03-15T03:04:04.027Z,72.04
2023-03-15T03:06:30.872Z,71.81
2023-03-15T03:08:57.423Z,71.83
2023-03-15T03:11:23.948Z,71.85
2023-03-15T03:13:51.186Z,72.15
2023-03-15T03:16:17.707Z,71.92
2023-03-15T03:18:44.183Z,71.85
2023-03-15T03:21:10.785Z,71.93
2023-03-15T03:23:37.414Z,71.59
2023-03-15T03:26:04.458Z,71.90
2023-03-15T03:28:32.255Z,71.94
2023-03-15T03:30:59.257Z,71.76
2023-03-15T03:33:25.815Z,72.04
2023-03-15T03:35:53.998Z,72.14
2023-03-15T03:38:20.559Z,71.89
2023-03-15T03:40:47.057Z,72.10
2023-03-15T03:43:13.540Z,72.12
2023-03-15T03:45:39.970Z,72.23
2023-03-15T03:48:06.624Z,72.27
2023-03-15T03:50:33.279Z,72.23
2023-03-15T03:52:59.809Z,72.07
2023-03-15T03:55:26.366Z,72.08
2023-03-15T03:57:55.748Z,72.21
2023-03-15T04:00:22.353Z,72.08
2023-03-15T04:02:49.009Z,72.16
2023-03-15T04:05:15.616Z,71.74
2023-03-15T04:07:42.067Z,71.67
2023-03-15T04:10:14.727Z,71.72
2023-03-15T04:12:44.375Z,71.29
2023-03-15T04:15:12.049Z,71.47
2023-03-15T04:17:39.399Z,71.42
2023-03-15T04:20:08.214Z,71.47
2023-03-15T04:22:34.933Z,71.42
2023-03-15T04:25:01.973Z,71.42
2023-03-15T04:27:29.450Z,71.60
2023-03-15T04:29:56.075Z,71.75
2023-03-15T04:32:23.836Z,71.79
2023-03-15T04:34:55.936Z,71.96
2023-03-15T04:37:22.388Z,71.88
2023-03-15T04:39:48.797Z,72.13
2023-03-15T04:42:15.243Z,71.88
2023-03-15T04:44:41.828Z,72.19
2023-03-15T04:47:08.427Z,72.09
2023-03-15T04:49:34.941Z,72.04
2023-03-15T04:52:01.589Z,71.95
2023-03-15T04:54:28.095Z,72.14
2023-03-15T04:56:54.537Z,71.97
2023-03-15T04:59:21.313Z,72.20
2023-03-15T05:01:48.056Z,72.44
2023-03-15T05:04:14.579Z,72.14
2023-03-15T05:06:41.048Z,71.98
2023-03-15T05:09:07.699Z,72.39
2023-03-15T05:11:34.329Z,72.35
2023-03-15T05:14:00.892Z,72.40
2023-03-15T05:16:27.426Z,72.21
2023-03-15T05:18:54.091Z,72.08
2023-03-15T05:21:20.583Z,72.14
2023-03-15T05:23:47.138Z,71.95
2023-03-15T05:26:14.413Z,71.96
2023-03-15T05:28:40.974Z,72.10
2023-03-15T05:31:07.428Z,72.01
2023-03-15T05:33:33.865Z,71.94
2023-03-15T05:36:00.989Z,72.14
2023-03-15T05:38:27.656Z,71.85
2023-03-15T05:40:54.638Z,71.68
2023-03-15T05:43:22.040Z,72.04
2023-03-15T05:45:48.825Z,71.80
2023-03-15T05:48:16.761Z,71.73
2023-03-15T05:50:43.361Z,71.98
2023-03-15T05:53:10.544Z,71.76
2023-03-15T05:55:37.430Z,71.96
2023-03-15T05:58:04.553Z,71.94
2023-03-15T06:00:31.535Z,71.98
2023-03-15T06:02:58.172Z,72.07
2023-03-15T06:05:24.758Z,72.33
2023-03-15T06:07:51.255Z,72.26
2023-03-15T06:10:17.861Z,72.46
2023-03-15T06:12:44.897Z,72.52
2023-03-15T06:15:11.971Z,72.80
2023-03-15T06:17:38.530Z,72.85
2023-03-15T06:20:05.480Z,72.85
2023-03-15T06:22:31.967Z,72.87
2023-03-15T06:24:58.398Z,72.82
2023-03-15T06:27:24.988Z,72.46
2023-03-15T06:29:51.540Z,72.50
2023-03-15T06:32:17.983Z,72.62
2023-03-15T06:34:44.395Z,72.46
2023-03-15T06:37:16.298Z,72.42
2023-03-15T06:39:46.839Z,72.35
2023-03-15T06:42:13.568Z,72.07
2023-03-15T06:44:41.433Z,72.16
2023-03-15T06:47:08.798Z,72.15
2023-03-15T06:49:35.563Z,72.45
2023-03-15T06:52:02.604Z,72.35
2023-03-15T06:54:29.100Z,71.93
2023-03-15T06:56:55.986Z,72.02
2023-03-15T06:59:22.954Z,72.01
2023-03-15T07:01:49.517Z,71.94
2023-03-15T07:04:16.191Z,71.78
2023-03-15T07:06:42.576Z,71.76
2023-03-15T07:09:09.183Z,72.18
2023-03-15T07:11:35.595Z,72.22
2023-03-15T07:14:02.034Z,72.29
2023-03-15T07:16:28.570Z,72.20
2023-03-15T07:21:27.091Z,71.97
2023-03-15T07:23:54.117Z,72.47
2023-03-15T07:26:20.827Z,72.23
2023-03-15T07:28:47.261Z,72.45
2023-03-15T07:31:14.217Z,72.24
2023-03-15T07:33:40.998Z,72.34
2023-03-15T07:36:08.844Z,72.66
2023-03-15T07:38:35.993Z,72.71
2023-03-15T07:41:06.521Z,72.96
2023-03-15T07:43:33.783Z,73.22
2023-03-15T07:46:01.476Z,73.21
2023-03-15T07:48:29.478Z,73.04
2023-03-15T07:50:56.849Z,73.32
2023-03-15T07:53:23.338Z,72.97
2023-03-15T07:55:50.165Z,73.11
2023-03-15T07:58:19.770Z,73.00
2023-03-15T08:00:46.918Z,72.73
2023-03-15T08:03:13.451Z,72.85
2023-03-15T08:05:40.150Z,72.81
2023-03-15T08:08:07.361Z,72.61
2023-03-15T08:10:33.907Z,72.64
2023-03-15T08:13:00.469Z,72.89
2023-03-15T08:15:27.021Z,72.66
2023-03-15T08:17:53.657Z,72.59
2023-03-15T08:20:20.281Z,72.61
2023-03-15T08:22:51.533Z,72.04
2023-03-15T08:25:21.412Z,72.46
2023-03-15T08:27:48.657Z,72.65
2023-03-15T08:30:16.387Z,72.42
2023-03-15T08:32:45.283Z,72.43
2023-03-15T08:35:15.718Z,72.21
2023-03-15T08:37:46.876Z,72.53
2023-03-15T08:40:19.081Z,71.52
2023-03-15T08:42:45.561Z,72.60
2023-03-15T08:45:12.202Z,72.45
2023-03-15T08:47:38.592Z,72.48
2023-03-15T08:50:08.637Z,71.72
2023-03-15T08:52:35.287Z,72.63
2023-03-15T08:55:01.702Z,72.18
2023-03-15T08:57:29.232Z,72.20
2023-03-15T08:59:56.222Z,71.67
2023-03-15T09:02:23.484Z,71.71
2023-03-15T09:04:51.789Z,71.84
2023-03-15T09:07:19.543Z,71.85
2023-03-15T09:09:48.199Z,71.57
2023-03-15T09:12:16.678Z,71.13
2023-03-15T09:14:44.014Z,71.66
2023-03-15T09:17:10.875Z,71.58
2023-03-15T09:19:37.415Z,71.81
2023-03-15T09:22:16.332Z,71.63
2023-03-15T09:24:51.476Z,71.62
2023-03-15T09:27:18.471Z,71.48
2023-03-15T09:29:44.965Z,71.39
2023-03-15T09:32:11.655Z,71.23
2023-03-15T09:34:41.980Z,71.18
2023-03-15T09:37:09.344Z,70.91
2023-03-15T09:39:35.866Z,71.05
2023-03-15T09:42:06.435Z,70.87
2023-03-15T09:44:43.745Z,70.75
2023-03-15T09:47:31.715Z,66.73
2023-03-15T09:50:14.900Z,67.59
2023-03-15T09:52:46.523Z,65.03
2023-03-15T09:55:28.856Z,66.11
2023-03-15T09:58:02.789Z,69.95
2023-03-15T10:00:45.768Z,66.72
2023-03-15T10:03:26.942Z,65.71
2023-03-15T10:06:01.300Z,65.31
2023-03-15T10:08:27.923Z,67.64
2023-03-15T10:11:08.848Z,63.65
2023-03-15T10:14:06.229Z,65.32
2023-03-15T10:16:46.071Z,64.00
2023-03-15T10:19:38.869Z,64.12
2023-03-15T10:22:14.647Z,63.47
2023-03-15T10:25:08.424Z,63.81
2023-03-15T10:27:41.678Z,63.90
2023-03-15T10:30:21.508Z,60.75
2023-03-15T10:32:55.834Z,63.45
2023-03-15T10:35:22.344Z,64.74
2023-03-15T10:37:49.107Z,64.38
2023-03-15T10:40:36.373Z,63.85
2023-03-15T10:43:18.018Z,60.50
2023-03-15T10:46:07.547Z,62.84
2023-03-15T10:48:39.511Z,65.04
2023-03-15T10:51:27.413Z,60.56
2023-03-15T10:54:01.337Z,61.61
2023-03-15T10:56:31.852Z,64.51
2023-03-15T10:59:12.015Z,63.97
2023-03-15T11:01:39.677Z,64.86
2023-03-15T11:04:23.091Z,62.73
2023-03-15T11:06:50.816Z,60.08
2023-03-15T11:09:23.715Z,62.78
2023-03-15T11:12:01.267Z,61.13
2023-03-15T11:14:59.124Z,53.58
2023-03-15T11:17:32.471Z,58.99
2023-03-15T11:20:18.595Z,57.42
2023-03-15T11:22:45.433Z,60.85
2023-03-15T11:25:17.196Z,59.92
2023-03-15T11:27:46.842Z,59.69
2023-03-15T11:30:16.080Z,60.70
2023-03-15T11:32:44.976Z,64.57
2023-03-15T11:35:15.443Z,63.28
2023-03-15T11:37:50.707Z,66.60
2023-03-15T11:40:29.876Z,60.66
2023-03-15T11:42:56.502Z,65.84
2023-03-15T11:45:33.687Z,55.80
2023-03-15T11:48:09.196Z,55.95
2023-03-15T11:50:35.768Z,61.89
2023-03-15T11:53:06.918Z,60.11
2023-03-15T11:55:33.905Z,57.46
2023-03-15T11:58:34.312Z,50.79
2023-03-15T12:01:03.662Z,54.12
2023-03-15T12:03:36.146Z,49.43
2023-03-15T12:06:05.686Z,48.56
2023-03-15T12:08:43.388Z,48.63
2023-03-15T12:11:34.087Z,49.88
2023-03-15T12:14:00.669Z,54.55
2023-03-15T12:16:47.759Z,48.28
2023-03-15T12:19:18.229Z,50.78
2023-03-15T12:21:50.573Z,47.98
2023-03-15T12:24:22.846Z,52.57
2023-03-15T12:27:17.071Z,47.65
2023-03-15T12:29:48.377Z,47.87
2023-03-15T12:32:17.665Z,50.77
2023-03-15T12:34:46.952Z,51.70
2023-03-15T12:37:17.273Z,48.61
2023-03-15T12:39:59.310Z,44.36
2023-03-15T12:42:31.881Z,43.09
2023-03-15T12:45:19.295Z,41.38
2023-03-15T12:47:51.880Z,43.96
2023-03-15T12:50:47.105Z,42.81
2023-03-15T12:53:23.218Z,41.83
2023-03-15T12:55:54.161Z,42.51
2023-03-15T12:58:32.133Z,33.96
2023-03-15T13:01:05.382Z,37.53
2023-03-15T13:03:35.420Z,38.72
2023-03-15T13:06:24.572Z,39.34
2023-03-15T13:09:11.779Z,38.83
2023-03-15T13:11:53.845Z,39.03
2023-03-15T13:14:47.991Z,39.56
2023-03-15T13:17:23.709Z,39.75
2023-03-15T13:23:22.818Z,43.38
2023-03-15T13:26:06.429Z,43.63
2023-03-15T13:28:38.117Z,43.88
2023-03-15T13:31:19.773Z,43.92
2023-03-15T13:33:57.231Z,45.80
2023-03-15T13:36:46.479Z,46.65
2023-03-15T13:39:24.699Z,48.58
2023-03-15T13:42:03.562Z,47.80
2023-03-15T13:44:31.899Z,51.83
2023-03-15T13:46:59.609Z,50.82
2023-03-15T13:49:31.822Z,44.74
2023-03-15T13:51:58.845Z,47.51
2023-03-15T13:54:27.633Z,44.85
2023-03-15T13:57:06.369Z,40.34
2023-03-15T13:59:40.480Z,41.08
2023-03-15T14:02:07.707Z,43.50
2023-03-15T14:04:38.214Z,39.48
2023-03-15T14:07:34.049Z,39.12
2023-03-15T14:10:08.735Z,37.89
2023-03-15T14:12:35.219Z,41.38
2023-03-15T14:15:01.810Z,40.06
2023-03-15T14:17:30.974Z,38.16
2023-03-15T14:20:08.950Z,34.93
2023-03-15T14:22:36.422Z,36.74
2023-03-15T14:25:04.250Z,35.72
2023-03-15T14:27:33.290Z,35.32
2023-03-15T14:30:02.379Z,34.93
2023-03-15T14:32:32.732Z,34.99
2023-03-15T14:35:21.625Z,35.50
2023-03-15T14:37:48.422Z,38.82
2023-03-15T14:40:22.908Z,38.22
2023-03-15T14:42:50.525Z,37.69
2023-03-15T14:45:18.485Z,37.09
2023-03-15T14:47:56.693Z,36.60
2023-03-15T14:50:26.602Z,37.29
2023-03-15T14:52:54.090Z,36.81
2023-03-15T14:55:23.845Z,34.58
2023-03-15T14:57:51.331Z,36.50
2023-03-15T15:00:20.534Z,36.34
2023-03-15T15:02:53.427Z,34.05
2023-03-15T15:05:24.827Z,34.11
2023-03-15T15:07:55.177Z,36.04
2023-03-15T15:10:31.735Z,33.35
2023-03-15T15:13:05.859Z,34.84
2023-03-15T15:15:43.807Z,35.03
2023-03-15T15:18:17.882Z,34.82
2023-03-15T15:20:45.138Z,34.08
2023-03-15T15:23:17.666Z,32.07
2023-03-15T15:25:46.537Z,34.22
2023-03-15T15:28:15.827Z,33.50
2023-03-15T15:30:47.924Z,33.30
2023-03-15T15:33:15.122Z,32.69
2023-03-15T15:35:41.629Z,30.92
2023-03-15T15:38:12.174Z,29.29
2023-03-15T15:40:39.806Z,30.60
2023-03-15T15:43:06.537Z,30.62
2023-03-15T15:45:35.713Z,29.91
2023-03-15T15:48:06.181Z,30.41
2023-03-15T15:50:34.755Z,30.05
2023-03-15T15:53:07.615Z,28.19
2023-03-15T15:55:36.085Z,30.30
2023-03-15T15:58:04.368Z,30.79
2023-03-15T16:00:31.629Z,31.70
2023-03-15T16:02:58.624Z,32.17
2023-03-15T16:05:27.427Z,32.06
2023-03-15T16:07:56.453Z,32.62
2023-03-15T16:10:26.196Z,32.95
2023-03-15T16:12:54.924Z,33.35
2023-03-15T16:15:21.582Z,34.28
2023-03-15T16:17:48.188Z,34.03
2023-03-15T16:20:16.570Z,34.98
2023-03-15T16:22:50.377Z,34.74
2023-03-15T16:25:25.325Z,34.41
2023-03-15T16:27:53.298Z,36.39
2023-03-15T16:30:28.398Z,34.40
2023-03-15T16:32:57.575Z,37.17
2023-03-15T16:35:33.818Z,35.87
2023-03-15T16:38:01.739Z,38.13
2023-03-15T16:40:30.806Z,37.78
2023-03-15T16:42:57.384Z,38.18
2023-03-15T16:45:24.826Z,37.89
2023-03-15T16:47:51.410Z,38.48
2023-03-15T16:50:18.323Z,38.31
2023-03-15T16:52:47.535Z,37.93
2023-03-15T16:55:15.837Z,38.30
2023-03-15T16:57:42.864Z,38.38
2023-03-15T17:00:16.927Z,37.23
2023-03-15T17:02:46.678Z,37.88
2023-03-15T17:05:18.861Z,39.51
2023-03-15T17:07:47.309Z,39.48
2023-03-15T17:10:25.506Z,38.34
2023-03-15T17:12:53.348Z,40.11
2023-03-15T17:15:24.008Z,39.91
2023-03-15T17:17:51.945Z,40.42
2023-03-15T17:20:21.490Z,40.54
2023-03-15T17:22:52.810Z,39.63
2023-03-15T17:25:19.420Z,41.12
2023-03-15T17:27:47.860Z,40.75
2023-03-15T17:30:51.582Z,39.60
2023-03-15T17:33:25.815Z,41.20
2023-03-15T17:35:57.908Z,40.89
2023-03-15T17:38:32.151Z,39.75
2023-03-15T17:40:59.000Z,41.27
2023-03-15T17:43:26.604Z,41.34
2023-03-15T17:45:52.925Z,41.45
2023-03-15T17:48:19.379Z,41.35
2023-03-15T17:50:45.802Z,41.32
2023-03-15T17:53:17.817Z,39.99
2023-03-15T17:55:46.202Z,41.17
2023-03-15T17:58:19.054Z,40.07
2023-03-15T18:00:46.511Z,41.71
2023-03-15T18:03:13.951Z,41.80
2023-03-15T18:05:40.775Z,41.82
2023-03-15T18:08:11.209Z,40.93
2023-03-15T18:10:41.442Z,41.57
2023-03-15T18:13:11.992Z,40.87
2023-03-15T18:15:38.402Z,41.59
2023-03-15T18:18:06.505Z,41.56
2023-03-15T18:20:33.171Z,41.63
2023-03-15T18:22:59.488Z,41.43
2023-03-15T18:25:28.252Z,41.35
2023-03-15T18:27:55.055Z,41.73
2023-03-15T18:30:24.317Z,41.48
2023-03-15T18:32:52.427Z,42.29
2023-03-15T18:35:31.379Z,40.36
2023-03-15T18:37:58.381Z,42.86
2023-03-15T18:40:29.205Z,42.55
2023-03-15T18:42:57.093Z,43.05
2023-03-15T18:45:29.634Z,42.38
2023-03-15T18:47:56.732Z,42.46
2023-03-15T18:50:23.142Z,42.42
2023-03-15T18:52:49.498Z,42.50
2023-03-15T18:55:18.342Z,42.16
2023-03-15T18:57:46.020Z,42.56
2023-03-15T19:00:15.944Z,42.85
2023-03-15T19:02:44.775Z,42.85
2023-03-15T19:05:13.651Z,42.95
2023-03-15T19:07:40.453Z,43.36
2023-03-15T19:10:09.824Z,43.15
2023-03-15T19:12:36.744Z,43.78
2023-03-15T19:15:04.421Z,43.82
2023-03-15T19:17:30.864Z,43.82
2023-03-15T19:19:57.261Z,43.42
2023-03-15T19:22:23.968Z,43.87
2023-03-15T19:24:50.489Z,43.54
2023-03-15T19:27:17.861Z,43.70
2023-03-15T19:29:44.397Z,43.54
2023-03-15T19:32:10.976Z,43.51
2023-03-15T19:34:37.551Z,43.31
2023-03-15T19:37:04.394Z,43.40
2023-03-15T19:39:30.866Z,43.46
2023-03-15T19:41:57.415Z,43.45
2023-03-15T19:44:23.932Z,43.56
2023-03-15T19:46:50.990Z,43.96
2023-03-15T19:49:17.457Z,43.97
2023-03-15T19:51:43.975Z,43.75
2023-03-15T19:54:10.616Z,44.04
2023-03-15T19:56:37.141Z,44.01
2023-03-15T19:59:04.453Z,43.99
2023-03-15T20:01:32.378Z,43.91
2023-03-15T20:03:59.498Z,44.12
2023-03-15T20:06:26.273Z,44.12
2023-03-15T20:08:52.895Z,44.31
2023-03-15T20:11:25.157Z,44.15
2023-03-15T20:13:54.758Z,43.06
2023-03-15T20:16:22.131Z,44.24
2023-03-15T20:18:51.286Z,44.65
2023-03-15T20:21:18.656Z,44.59
2023-03-15T20:23:45.508Z,44.38
2023-03-15T20:26:16.764Z,44.29
2023-03-15T20:28:44.318Z,44.67
2023-03-15T20:31:13.155Z,44.86
2023-03-15T20:33:40.127Z,44.98
2023-03-15T20:36:07.183Z,45.00
2023-03-15T20:38:34.612Z,45.03
2023-03-15T20:41:01.233Z,44.90
2023-03-15T20:43:27.695Z,45.15
2023-03-15T20:45:55.981Z,44.96
2023-03-15T20:48:24.697Z,45.38
2023-03-15T20:50:52.312Z,44.99
2023-03-15T20:53:19.510Z,45.11
2023-03-15T20:55:46.195Z,44.75
2023-03-15T20:58:12.872Z,45.15
2023-03-15T21:00:44.384Z,45.38
2023-03-15T21:03:13.109Z,45.26
2023-03-15T21:05:44.664Z,44.35
2023-03-15T21:08:12.195Z,45.68
2023-03-15T21:10:38.923Z,45.65
2023-03-15T21:13:11.036Z,45.80
2023-03-15T21:15:46.593Z,44.35
2023-03-15T21:18:17.943Z,45.12
2023-03-15T21:20:44.576Z,45.98
2023-03-15T21:23:11.555Z,45.89
2023-03-15T21:25:38.442Z,46.17
2023-03-15T21:28:05.026Z,46.66
2023-03-15T21:30:33.097Z,46.58
2023-03-15T21:33:00.062Z,46.69
2023-03-15T21:35:26.699Z,46.86
2023-03-15T21:37:53.358Z,46.82
2023-03-15T21:40:19.927Z,47.04
2023-03-15T21:42:47.869Z,47.09
2023-03-15T21:45:14.661Z,47.18
2023-03-15T21:47:41.524Z,47.64
2023-03-15T21:50:11.136Z,47.29
2023-03-15T21:52:37.626Z,47.42
2023-03-15T21:55:04.896Z,47.41
2023-03-15T21:57:33.841Z,47.62
2023-03-15T22:00:01.202Z,47.55
2023-03-15T22:02:27.758Z,47.87
2023-03-15T22:04:54.286Z,47.92
2023-03-15T22:07:20.835Z,47.79
2023-03-15T22:09:47.354Z,48.03
2023-03-15T22:12:15.482Z,48.31
2023-03-15T22:14:42.206Z,48.40
2023-03-15T22:17:08.930Z,48.43
2023-03-15T22:19:35.611Z,48.35
2023-03-15T22:22:02.190Z,48.29
2023-03-15T22:24:28.947Z,48.41
2023-03-15T22:26:56.170Z,48.93
2023-03-15T22:29:22.845Z,48.26
2023-03-15T22:31:49.342Z,48.65
2023-03-15T22:34:15.943Z,48.69
2023-03-15T22:36:42.701Z,48.67
2023-03-15T22:39:10.098Z,48.61
2023-03-15T22:41:36.934Z,48.68
2023-03-15T22:44:03.722Z,48.53
2023-03-15T22:46:34.886Z,48.27
2023-03-15T22:49:02.294Z,48.54
2023-03-15T22:51:28.958Z,48.59
2023-03-15T22:53:55.473Z,48.69
2023-03-15T22:56:22.054Z,48.42
2023-03-15T22:58:48.785Z,48.67
2023-03-15T23:01:15.377Z,48.54
2023-03-15T23:03:41.946Z,48.44
2023-03-15T23:06:08.420Z,48.55
2023-03-15T23:08:34.979Z,48.58
2023-03-15T23:11:01.503Z,48.70
2023-03-15T23:13:27.969Z,48.72
2023-03-15T23:15:54.581Z,49.14
2023-03-15T23:18:22.068Z,49.33
2023-03-15T23:20:48.592Z,49.27
2023-03-15T23:23:15.414Z,49.03
2023-03-15T23:25:43.074Z,49.06
2023-03-15T23:28:09.725Z,49.33
2023-03-15T23:30:36.532Z,49.58
2023-03-15T23:33:03.841Z,49.57
2023-03-15T23:35:31.779Z,49.72
2023-03-15T23:37:58.563Z,49.70
2023-03-15T23:40:26.161Z,49.89
2023-03-15T23:42:58.877Z,49.82
2023-03-15T23:45:27.771Z,49.56
2023-03-15T23:47:54.396Z,49.72
2023-03-15T23:50:25.802Z,50.15
2023-03-15T23:52:54.684Z,50.05
2023-03-15T23:55:22.262Z,50.38
2023-03-15T23:57:49.335Z,50.23
